Time;durP1;ratioP1;P1;durP2;ratioP2;P2;SDS_P1;SDS_P2;PMS_P1;PMS_P2;Temp;Humidity;BMP_temperature;BMP_pressure;BME280_temperature;BME280_humidity;BME280_pressure;Samples;Min_cycle;Max_cycle;Signal;HPM_P1;HPM_P2
2022/01/15 00:00:59;;;;;;;1999.90;999.90;;;;;;;3.43;100.00;163312.22;5009192;28;20108;-67
2022/01/15 00:03:27;;;;;;;1999.90;999.90;;;;;;;3.48;100.00;163325.94;5010492;28;20052;-67
2022/01/15 00:05:55;;;;;;;1999.90;999.90;;;;;;;3.62;100.00;163362.94;5009484;28;20053;-67
2022/01/15 00:08:22;;;;;;;1999.90;999.90;;;;;;;3.49;100.00;163328.66;5010634;28;20069;-67
2022/01/15 00:10:49;;;;;;;1999.90;999.90;;;;;;;3.65;100.00;163369.81;5011998;28;20053;-67
2022/01/15 00:13:26;;;;;;;1999.90;999.90;;;;;;;3.58;100.00;163351.97;5011619;28;20934;-67
2022/01/15 00:16:04;;;;;;;1999.90;999.90;;;;;;;3.41;100.00;163305.34;5009916;28;20438;-67
2022/01/15 00:18:42;;;;;;;1999.90;999.90;;;;;;;3.28;100.00;163272.47;5001220;28;20108;-67
2022/01/15 00:21:10;;;;;;;1999.90;999.90;;;;;;;3.29;100.00;163275.22;5009146;28;20418;-67
2022/01/15 00:23:37;;;;;;;1999.90;999.90;;;;;;;3.37;100.00;163295.78;5010805;28;20378;-67
2022/01/15 00:26:03;;;;;;;1999.90;999.90;;;;;;;3.57;100.00;163347.84;5010533;28;20054;-67
2022/01/15 00:28:30;;;;;;;1999.90;999.90;;;;;;;3.52;100.00;163335.53;5011148;28;20089;-66
2022/01/15 00:30:57;;;;;;;1999.90;999.90;;;;;;;3.30;100.00;163276.56;5008156;28;20057;-67
2022/01/15 00:33:24;;;;;;;1999.90;999.90;;;;;;;3.30;100.00;163277.94;5009298;28;20079;-66
2022/01/15 00:35:50;;;;;;;1999.90;999.90;;;;;;;2.98;100.00;163193.00;5008665;28;20096;-66
2022/01/15 00:38:18;;;;;;;1999.90;999.90;;;;;;;3.29;100.00;163273.81;5014532;28;20142;-67
2022/01/15 00:40:44;;;;;;;1999.90;999.90;;;;;;;3.16;100.00;163240.94;5006909;28;20109;-67
2022/01/15 00:43:11;;;;;;;1999.90;999.90;;;;;;;3.33;100.00;163286.19;5012434;28;20091;-67
2022/01/15 00:45:37;;;;;;;1999.90;999.90;;;;;;;2.96;100.00;163186.13;5009504;28;20100;-67
2022/01/15 00:48:04;;;;;;;1999.90;999.90;;;;;;;3.23;100.00;163257.38;5008227;28;20058;-67
2022/01/15 00:50:31;;;;;;;1999.90;999.90;;;;;;;3.29;100.00;163273.81;5011250;28;20045;-67
2022/01/15 00:52:57;;;;;;;1999.90;999.90;;;;;;;3.10;100.00;163224.50;5008286;28;20108;-67
2022/01/15 00:55:24;;;;;;;1999.90;999.90;;;;;;;3.05;100.00;163209.44;5007924;28;20093;-67
2022/01/15 00:57:51;;;;;;;1999.90;999.90;;;;;;;2.83;100.00;163151.91;5008753;28;20123;-67
2022/01/15 01:00:20;;;;;;;1999.90;999.90;;;;;;;2.71;100.00;163120.41;5003332;28;20466;-67
2022/01/15 01:02:47;;;;;;;1999.90;999.90;;;;;;;2.83;100.00;163151.91;5009482;28;20114;-67
2022/01/15 01:05:15;;;;;;;1999.90;999.90;;;;;;;3.09;100.00;163221.75;5009195;28;20067;-67
2022/01/15 01:07:42;;;;;;;1999.90;999.90;;;;;;;3.24;100.00;163261.50;5010443;28;20185;-68
2022/01/15 01:23:05;;;;;;;1999.90;999.90;;;;;;;3.08;100.00;163217.66;5010079;28;20085;-67
2022/01/15 01:25:38;;;;;;;1999.90;999.90;;;;;;;2.91;100.00;163173.81;4991222;28;20118;-66
2022/01/15 01:28:13;;;;;;;1999.90;999.90;;;;;;;3.03;100.00;163205.31;5008386;28;20423;-68
2022/01/15 01:31:30;;;;;;;1999.90;999.90;;;;;;;2.93;100.00;163177.91;5009362;28;20088;-67
2022/01/15 01:33:36;;;;;;;1999.90;999.90;;;;;;;2.82;100.00;163150.50;5001756;28;20061;-67
2022/01/15 01:38:58;;;;;;;1999.90;999.90;;;;;;;2.38;100.00;163032.75;5009585;28;20080;-66
2022/01/15 01:41:22;;;;;;;1999.90;999.90;;;;;;;2.57;100.00;163082.03;5008062;28;20079;-66
2022/01/15 01:44:01;;;;;;;1999.90;999.90;;;;;;;2.59;100.00;163087.50;5008901;28;20050;-66
2022/01/15 01:48:57;;;;;;;1999.90;999.90;;;;;;;2.72;100.00;163121.75;5007290;28;20053;-67
2022/01/15 01:51:33;;;;;;;1999.90;999.90;;;;;;;2.58;100.00;163086.16;5007446;28;20112;-67
2022/01/15 01:54:05;;;;;;;1999.90;999.90;;;;;;;2.74;100.00;163127.22;5008154;28;20127;-68
2022/01/15 01:56:32;;;;;;;1999.90;999.90;;;;;;;2.71;100.00;163120.41;5008049;28;20084;-68
2022/01/15 01:58:59;;;;;;;1999.90;999.90;;;;;;;2.61;100.00;163093.00;5010646;28;20080;-67
2022/01/15 02:01:26;;;;;;;1999.90;999.90;;;;;;;2.59;100.00;163087.50;5009190;28;20078;-67
2022/01/15 02:03:53;;;;;;;1999.90;999.90;;;;;;;2.82;100.00;163150.50;5008909;28;20552;-68
2022/01/15 02:06:20;;;;;;;1999.90;999.90;;;;;;;2.61;100.00;163093.00;5005485;28;20504;-67
2022/01/15 02:08:48;;;;;;;1999.90;999.90;;;;;;;2.27;100.00;163003.97;5008566;28;20146;-67
2022/01/15 02:11:16;;;;;;;1999.90;999.90;;;;;;;2.31;100.00;163013.56;5007389;28;20648;-66
2022/01/15 02:13:44;;;;;;;1999.90;999.90;;;;;;;2.66;100.00;163106.69;5009564;28;20042;-67
2022/01/15 02:16:13;;;;;;;1999.90;999.90;;;;;;;2.36;100.00;163025.88;5009019;28;20054;-65
2022/01/15 02:18:40;;;;;;;1999.90;999.90;;;;;;;2.56;100.00;163079.28;5004494;28;20066;-67
2022/01/15 02:23:44;;;;;;;1999.90;999.90;;;;;;;2.71;100.00;163120.41;5007780;28;20097;-68
2022/01/15 02:26:15;;;;;;;1999.90;999.90;;;;;;;2.59;100.00;163087.50;5007200;28;20084;-67
2022/01/15 02:28:44;;;;;;;1999.90;999.90;;;;;;;2.55;100.00;163077.94;5008967;28;20050;-67
2022/01/15 02:31:17;;;;;;;1999.90;999.90;;;;;;;2.77;100.00;163136.84;5007511;28;20053;-68
2022/01/15 02:33:45;;;;;;;1999.90;999.90;;;;;;;2.88;100.00;163165.59;5011774;28;20077;-67
2022/01/15 02:36:23;;;;;;;1999.90;999.90;;;;;;;2.64;100.00;163101.22;5007664;28;20053;-67
2022/01/15 02:38:51;;;;;;;1999.90;999.90;;;;;;;2.66;100.00;163106.69;5008187;28;20100;-70
2022/01/15 02:41:29;;;;;;;1999.90;999.90;;;;;;;2.31;100.00;163012.16;5008130;28;20135;-67
2022/01/15 02:44:01;;;;;;;1999.90;999.90;;;;;;;2.38;100.00;163032.75;5010500;28;20110;-67
2022/01/15 02:49:01;;;;;;;1999.90;999.90;;;;;;;2.31;100.00;163013.56;5007974;28;19957;-66
2022/01/15 02:51:30;;;;;;;1999.90;999.90;;;;;;;2.36;100.00;163025.88;5007840;28;20108;-67
2022/01/15 02:53:56;;;;;;;1999.90;999.90;;;;;;;2.42;100.00;163043.66;5007930;28;20096;-67
2022/01/15 02:56:26;;;;;;;1999.90;999.90;;;;;;;2.39;100.00;163035.47;5007475;28;20053;-66
2022/01/15 02:58:53;;;;;;;1999.90;999.90;;;;;;;2.50;100.00;163062.84;5008453;28;20589;-67
2022/01/15 03:01:20;;;;;;;1999.90;999.90;;;;;;;2.72;100.00;163121.75;5007433;28;20077;-67
2022/01/15 03:03:47;;;;;;;1999.90;999.90;;;;;;;2.56;100.00;163080.69;5007334;28;20112;-67
2022/01/15 03:06:15;;;;;;;1999.90;999.90;;;;;;;2.76;100.00;163132.72;5006346;28;20053;-68
2022/01/15 03:08:44;;;;;;;1999.90;999.90;;;;;;;2.79;100.00;163140.94;5007602;28;20077;-67
2022/01/15 03:11:11;;;;;;;1999.90;999.90;;;;;;;2.92;100.00;163175.22;4999275;28;20395;-67
2022/01/15 03:13:39;;;;;;;1999.90;999.90;;;;;;;2.86;100.00;163158.72;5005777;28;20119;-67
2022/01/15 03:16:15;;;;;;;1999.90;999.90;;;;;;;2.65;100.00;163103.97;5006914;28;20046;-67
2022/01/15 03:18:42;;;;;;;1999.90;999.90;;;;;;;2.16;100.00;162972.47;5010985;28;20137;-67
2022/01/15 03:21:09;;;;;;;1999.90;999.90;;;;;;;2.27;100.00;163002.59;5011626;28;20108;-67
2022/01/15 03:23:36;;;;;;;1999.90;999.90;;;;;;;2.84;100.00;163154.63;5005956;28;20054;-67
2022/01/15 03:26:03;;;;;;;1999.90;999.90;;;;;;;2.39;100.00;163035.47;5007221;28;20131;-67
2022/01/15 03:28:30;;;;;;;1999.90;999.90;;;;;;;2.43;100.00;163045.06;5006489;28;20054;-66
2022/01/15 03:30:56;;;;;;;1999.90;999.90;;;;;;;2.33;100.00;163017.69;5006923;28;20438;-66
2022/01/15 03:33:23;;;;;;;1999.90;999.90;;;;;;;2.43;100.00;163046.41;5008454;28;20100;-67
2022/01/15 03:35:50;;;;;;;1999.90;999.90;;;;;;;2.09;100.00;162954.69;5013430;28;20049;-69
2022/01/15 03:38:16;;;;;;;1999.90;999.90;;;;;;;2.33;100.00;163017.69;5005395;28;20054;-66
2022/01/15 03:40:43;;;;;;;1999.90;999.90;;;;;;;2.09;100.00;162956.03;4990315;28;20077;-67
2022/01/15 03:43:10;;;;;;;1999.90;999.90;;;;;;;1.97;100.00;162923.19;5007950;28;20080;-66
2022/01/15 03:45:37;;;;;;;1999.90;999.90;;;;;;;2.19;100.00;162982.06;5008157;28;20062;-68
2022/01/15 03:48:04;;;;;;;1999.90;999.90;;;;;;;2.41;100.00;163040.97;5006414;28;20054;-68
2022/01/15 03:50:30;;;;;;;1999.90;999.90;;;;;;;2.34;100.00;163020.38;5005759;28;20418;-67
2022/01/15 03:52:57;;;;;;;1999.90;999.90;;;;;;;2.50;100.00;163062.84;5007277;28;20096;-66
2022/01/15 03:55:25;;;;;;;1999.90;999.90;;;;;;;1.88;100.00;162899.91;5005816;28;20128;-67
2022/01/15 03:57:51;;;;;;;1999.90;999.90;;;;;;;2.07;100.00;162950.56;4995829;28;20081;-67
2022/01/15 04:00:21;;;;;;;1999.90;999.90;;;;;;;2.39;100.00;163034.09;5007372;28;20054;-67
2022/01/15 04:02:49;;;;;;;1999.90;999.90;;;;;;;2.62;100.00;163095.72;5009492;28;20135;-67
2022/01/15 04:05:16;;;;;;;1999.90;999.90;;;;;;;2.68;100.00;163110.78;5005145;28;20054;-67
2022/01/15 04:07:42;;;;;;;1999.90;999.90;;;;;;;2.39;100.00;163035.47;5006023;28;20050;-67
2022/01/15 04:10:11;;;;;;;1999.90;999.90;;;;;;;2.66;100.00;163106.69;5008962;28;20058;-67
2022/01/15 04:12:38;;;;;;;1999.90;999.90;;;;;;;2.71;100.00;163119.00;5011076;28;20084;-67
2022/01/15 04:15:07;;;;;;;1999.90;999.90;;;;;;;2.30;100.00;163010.81;5010569;28;20054;-67
2022/01/15 04:17:34;;;;;;;1999.90;999.90;;;;;;;2.21;100.00;162986.19;5009254;28;20073;-67
2022/01/15 04:20:01;;;;;;;1999.90;999.90;;;;;;;2.19;100.00;162980.66;5009341;28;20054;-67
2022/01/15 04:22:27;;;;;;;1999.90;999.90;;;;;;;2.23;100.00;162991.63;5009870;28;20450;-67
2022/01/15 04:24:54;;;;;;;1999.90;999.90;;;;;;;2.58;100.00;163084.78;5010014;28;20085;-67
2022/01/15 04:27:22;;;;;;;1999.90;999.90;;;;;;;2.74;100.00;163128.63;5010123;28;20225;-67
2022/01/15 04:29:50;;;;;;;1999.90;999.90;;;;;;;2.66;100.00;163106.69;5009014;28;20443;-67
2022/01/15 04:32:18;;;;;;;1999.90;999.90;;;;;;;2.51;100.00;163066.97;5009464;28;20524;-67
2022/01/15 04:34:45;;;;;;;1999.90;999.90;;;;;;;2.57;100.00;163082.03;5010569;28;20316;-65
2022/01/15 04:37:19;;;;;;;1999.90;999.90;;;;;;;2.60;100.00;163090.25;5007664;28;20090;-65
2022/01/15 04:39:45;;;;;;;1999.90;999.90;;;;;;;2.63;100.00;163099.88;5010076;28;20493;-65
2022/01/15 04:42:12;;;;;;;1999.90;999.90;;;;;;;2.72;100.00;163123.09;5011360;28;20498;-65
2022/01/15 04:44:39;;;;;;;1999.90;999.90;;;;;;;2.75;99.95;163131.31;5010968;28;20081;-65
2022/01/15 04:47:06;;;;;;;1999.90;999.90;;;;;;;2.64;100.00;163101.22;5011247;28;20050;-65
2022/01/15 04:49:33;;;;;;;1999.90;999.90;;;;;;;2.63;100.00;163098.47;5017196;28;20080;-66
2022/01/15 04:52:00;;;;;;;1999.90;999.90;;;;;;;2.66;100.00;163106.69;5010017;28;20116;-66
2022/01/15 04:54:27;;;;;;;1999.90;999.90;;;;;;;2.63;100.00;163098.47;5010959;28;20116;-66
2022/01/15 04:56:54;;;;;;;1999.90;999.90;;;;;;;2.49;100.00;163060.09;5010530;28;20078;-66
2022/01/15 04:59:23;;;;;;;1999.90;999.90;;;;;;;2.50;100.00;163064.25;5009392;28;20137;-66
2022/01/15 05:01:50;;;;;;;1999.90;999.90;;;;;;;2.37;100.00;163030.00;5008785;28;20376;-65
2022/01/15 05:04:17;;;;;;;1999.90;999.90;;;;;;;2.56;100.00;163079.28;5007862;28;20072;-66
2022/01/15 05:06:44;;;;;;;1999.90;999.90;;;;;;;2.48;100.00;163058.75;5007252;28;20077;-66
2022/01/15 05:09:11;;;;;;;1999.90;999.90;;;;;;;2.31;100.00;163013.56;5008594;28;20073;-67
2022/01/15 05:11:49;;;;;;;1999.90;999.90;;;;;;;2.30;100.00;163010.81;5006476;28;20077;-67
2022/01/15 05:14:17;;;;;;;1999.90;999.90;;;;;;;2.56;100.00;163079.28;5007741;28;20427;-66
2022/01/15 05:16:44;;;;;;;1999.90;999.90;;;;;;;2.69;100.00;163114.91;5008250;28;20050;-67
2022/01/15 05:19:11;;;;;;;1999.90;999.90;;;;;;;2.57;100.00;163082.03;5008170;28;20046;-67
2022/01/15 05:21:38;;;;;;;1999.90;999.90;;;;;;;2.49;100.00;163060.09;5006641;28;20343;-67
2022/01/15 05:24:06;;;;;;;1999.90;999.90;;;;;;;2.05;100.00;162943.72;5008343;28;20049;-67
2022/01/15 05:26:33;;;;;;;1999.90;999.90;;;;;;;1.92;100.00;162909.47;5009267;28;20104;-67
2022/01/15 05:29:00;;;;;;;1999.90;999.90;;;;;;;2.29;100.00;163008.06;5008239;28;20395;-67
2022/01/15 05:31:27;;;;;;;1999.90;999.90;;;;;;;2.23;100.00;162993.03;5005382;28;20073;-67
2022/01/15 05:33:53;;;;;;;1999.90;999.90;;;;;;;2.33;100.00;163019.03;5011549;28;20045;-67
2022/01/15 05:36:20;;;;;;;1999.90;999.90;;;;;;;2.43;100.00;163045.06;5008435;28;20066;-67
2022/01/15 05:38:47;;;;;;;1999.90;999.90;;;;;;;2.31;100.00;163013.56;5007537;28;20168;-66
2022/01/15 05:41:14;;;;;;;1999.90;999.90;;;;;;;2.31;100.00;163013.56;5007858;28;20107;-66
2022/01/15 05:43:41;;;;;;;1999.90;999.90;;;;;;;2.12;100.00;162962.91;5005923;28;20085;-67
2022/01/15 05:46:07;;;;;;;1999.90;999.90;;;;;;;2.14;100.00;162968.34;5005885;28;20146;-67
2022/01/15 05:48:34;;;;;;;1999.90;999.90;;;;;;;2.15;100.00;162969.75;5005962;28;20063;-66
2022/01/15 05:51:00;;;;;;;1999.90;999.90;;;;;;;2.02;100.00;162936.84;5006404;28;20458;-66
2022/01/15 05:53:27;;;;;;;1999.90;999.90;;;;;;;1.78;100.00;162871.19;5009823;28;20466;-66
2022/01/15 05:55:53;;;;;;;1999.90;999.90;;;;;;;2.13;100.00;162964.25;4991286;28;20050;-66
2022/01/15 05:58:20;;;;;;;1999.90;999.90;;;;;;;2.21;100.00;162987.53;5005494;28;20050;-66
2022/01/15 06:00:47;;;;;;;1999.90;999.90;;;;;;;1.98;100.00;162925.94;5006007;28;20446;-66
2022/01/15 06:03:13;;;;;;;1999.90;999.90;;;;;;;1.92;100.00;162910.88;5007467;28;20038;-66
2022/01/15 06:05:40;;;;;;;1999.90;999.90;;;;;;;2.19;100.00;162980.66;5005892;28;20153;-66
2022/01/15 06:08:06;;;;;;;1999.90;999.90;;;;;;;2.18;100.00;162979.31;5007664;28;20147;-67
2022/01/15 06:10:34;;;;;;;1999.90;999.90;;;;;;;2.15;100.00;162969.75;5018608;28;20468;-66
2022/01/15 06:13:01;;;;;;;1999.90;999.90;;;;;;;2.06;100.00;162947.81;5008476;28;20046;-66
2022/01/15 06:15:27;;;;;;;1999.90;999.90;;;;;;;2.18;100.00;162977.97;5006771;28;20077;-66
2022/01/15 06:17:54;;;;;;;1999.90;999.90;;;;;;;1.97;100.00;162921.84;5006780;28;20107;-66
2022/01/15 06:20:20;;;;;;;1999.90;999.90;;;;;;;2.07;100.00;162950.56;5007712;28;20046;-66
2022/01/15 06:22:47;;;;;;;1999.90;999.90;;;;;;;2.03;100.00;162939.59;5008251;28;20509;-66
2022/01/15 06:25:13;;;;;;;1999.90;999.90;;;;;;;2.19;100.00;162980.66;5005713;28;20461;-66
2022/01/15 06:27:40;;;;;;;1999.90;999.90;;;;;;;1.99;100.00;162928.66;5006869;28;20046;-66
2022/01/15 06:30:07;;;;;;;1999.90;999.90;;;;;;;2.29;100.00;163008.06;5006197;28;20042;-66
2022/01/15 06:32:36;;;;;;;1999.90;999.90;;;;;;;2.28;100.00;163006.72;5007154;28;20099;-67
2022/01/15 06:35:08;;;;;;;1999.90;999.90;;;;;;;2.28;100.00;163005.34;5005462;28;20096;-66
2022/01/15 06:37:35;;;;;;;;;;;;;;;2.23;100.00;162993.03;5007584;28;20415;-67
2022/01/15 06:40:03;;;;;;;1999.90;999.90;;;;;;;2.31;100.00;163013.56;5005297;28;19957;-66
2022/01/15 06:42:30;;;;;;;1999.90;999.90;;;;;;;2.24;100.00;162994.38;5005746;28;20054;-66
2022/01/15 06:44:56;;;;;;;1999.90;999.90;;;;;;;2.26;100.00;162999.84;5007196;28;20080;-66
2022/01/15 06:47:23;;;;;;;1999.90;999.90;;;;;;;1.76;100.00;162867.06;5005114;28;20053;-67
2022/01/15 06:49:50;;;;;;;1999.90;999.90;;;;;;;1.69;100.00;162849.25;5007497;28;20046;-67
2022/01/15 06:52:17;;;;;;;1999.90;999.90;;;;;;;1.75;100.00;162865.66;5014993;28;20045;-66
2022/01/15 06:54:43;;;;;;;1999.90;999.90;;;;;;;1.97;100.00;162921.84;5006035;28;20088;-66
2022/01/15 06:57:10;;;;;;;1999.90;999.90;;;;;;;1.70;100.00;162852.00;5004792;28;20061;-66
2022/01/15 06:59:36;;;;;;;1999.90;999.90;;;;;;;1.81;100.00;162879.38;5006770;28;20104;-66
2022/01/15 07:02:05;;;;;;;1999.90;999.90;;;;;;;1.64;100.00;162835.59;5006898;28;20092;-66
2022/01/15 07:04:31;;;;;;;1999.90;999.90;;;;;;;1.78;100.00;162871.19;5007408;28;20057;-66
2022/01/15 07:06:58;;;;;;;1999.90;999.90;;;;;;;1.61;100.00;162825.97;5006946;28;20053;-65
2022/01/15 07:09:24;;;;;;;1999.90;999.90;;;;;;;1.49;100.00;162794.50;5006401;28;20088;-66
2022/01/15 07:11:51;;;;;;;1999.90;999.90;;;;;;;1.70;100.00;162852.00;5006505;28;20155;-66
2022/01/15 07:14:17;;;;;;;1999.90;999.90;;;;;;;1.82;100.00;162882.13;5007811;28;20140;-66
2022/01/15 07:16:44;;;;;;;1999.90;999.90;;;;;;;1.82;100.00;162882.13;5007413;28;20430;-67
2022/01/15 07:19:11;;;;;;;1999.90;999.90;;;;;;;1.89;100.00;162901.25;5007335;28;20140;-66
2022/01/15 07:21:37;;;;;;;1999.90;999.90;;;;;;;2.13;100.00;162964.25;5007861;28;20326;-66
2022/01/15 07:24:04;;;;;;;1999.90;999.90;;;;;;;2.18;100.00;162979.31;5005037;28;20054;-66
2022/01/15 07:26:31;;;;;;;1999.90;999.90;;;;;;;2.21;100.00;162986.19;5005426;28;20288;-66
2022/01/15 07:28:58;;;;;;;1999.90;999.90;;;;;;;2.30;100.00;163010.81;5005807;28;20058;-66
2022/01/15 07:31:25;;;;;;;1999.90;999.90;;;;;;;2.19;100.00;162982.06;5006293;28;20081;-66
2022/01/15 07:33:51;;;;;;;1999.90;999.90;;;;;;;1.86;100.00;162894.47;5008491;28;20530;-66
2022/01/15 07:36:18;;;;;;;1999.90;999.90;;;;;;;2.28;100.00;163005.34;5004567;28;20085;-66
2022/01/15 07:38:45;;;;;;;1999.90;999.90;;;;;;;2.42;100.00;163043.66;5005600;28;20106;-67
2022/01/15 07:41:13;;;;;;;1999.90;999.90;;;;;;;2.27;100.00;163003.97;5006363;28;20085;-66
2022/01/15 07:43:40;;;;;;;1999.90;999.90;;;;;;;2.24;100.00;162994.38;5006081;28;20065;-66
2022/01/15 07:46:07;;;;;;;1999.90;999.90;;;;;;;2.00;100.00;162931.41;5010083;28;20049;-66
2022/01/15 07:48:33;;;;;;;1999.90;999.90;;;;;;;2.11;100.00;162960.13;5010879;28;20104;-67
2022/01/15 07:51:00;;;;;;;1999.90;999.90;;;;;;;2.30;100.00;163010.81;5009129;28;20081;-66
2022/01/15 07:53:27;;;;;;;1999.90;999.90;;;;;;;2.57;100.00;163082.03;5008668;28;20077;-66
2022/01/15 07:55:53;;;;;;;1999.90;999.90;;;;;;;2.44;100.00;163049.19;5008143;28;20095;-67
2022/01/15 07:58:20;;;;;;;1999.90;999.90;;;;;;;2.44;100.00;163049.19;5009503;28;20434;-66
2022/01/15 08:00:46;;;;;;;1999.90;999.90;;;;;;;2.87;100.00;163162.84;5010566;28;20103;-66
2022/01/15 08:03:13;;;;;;;1999.90;999.90;;;;;;;2.44;100.00;163049.19;5009230;28;20073;-67
2022/01/15 08:05:39;;;;;;;1999.90;999.90;;;;;;;2.39;100.00;163035.47;5008778;28;20081;-66
2022/01/15 08:08:06;;;;;;;1999.90;999.90;;;;;;;2.27;100.00;163002.59;5005651;28;20400;-67
2022/01/15 08:10:33;;;;;;;1999.90;999.90;;;;;;;2.30;100.00;163010.81;5009328;28;20270;-68
2022/01/15 08:12:59;;;;;;;1999.90;999.90;;;;;;;2.41;100.00;163040.97;5009055;28;20077;-67
2022/01/15 08:15:26;;;;;;;1999.90;999.90;;;;;;;2.50;100.00;163062.84;5010409;28;20447;-66
2022/01/15 08:17:52;;;;;;;1999.90;999.90;;;;;;;2.49;100.00;163060.09;5008828;28;20078;-67
2022/01/15 08:20:19;;;;;;;1999.90;999.90;;;;;;;2.33;100.00;163019.03;5007634;28;20084;-67
2022/01/15 08:22:46;;;;;;;1999.90;999.90;;;;;;;2.80;100.00;163145.06;5009771;28;20140;-66
2022/01/15 08:25:18;;;;;;;1999.90;999.90;;;;;;;2.87;100.00;163161.47;5009449;28;20054;-67
2022/01/15 08:27:46;;;;;;;1999.90;999.90;;;;;;;2.96;100.00;163187.53;5009229;28;20123;-66
2022/01/15 08:30:13;;;;;;;1999.90;999.90;;;;;;;2.96;100.00;163187.53;5009977;28;20054;-66
2022/01/15 08:32:39;;;;;;;1999.90;999.90;;;;;;;2.84;100.00;163153.28;5009004;28;20431;-67
2022/01/15 08:35:07;;;;;;;1999.90;999.90;;;;;;;2.99;100.00;163194.34;5006285;28;20366;-67
2022/01/15 08:37:34;;;;;;;1999.90;999.90;;;;;;;2.87;100.00;163162.84;5007707;28;20073;-67
2022/01/15 08:40:01;;;;;;;1999.90;999.90;;;;;;;2.53;100.00;163071.06;5008281;28;21924;-67
2022/01/15 08:42:27;;;;;;;1999.90;999.90;;;;;;;2.64;100.00;163102.56;5009943;28;20493;-66
2022/01/15 08:44:54;;;;;;;1999.90;999.90;;;;;;;2.32;100.00;163016.28;5009744;28;20073;-67
2022/01/15 08:47:21;;;;;;;1999.90;999.90;;;;;;;2.37;100.00;163028.66;5011710;28;20375;-67
2022/01/15 08:49:48;;;;;;;1999.90;999.90;;;;;;;2.86;100.00;163160.13;5008563;28;20066;-66
2022/01/15 08:52:14;;;;;;;1999.90;999.90;;;;;;;2.46;100.00;163054.63;5008194;28;20046;-67
2022/01/15 08:54:41;;;;;;;1999.90;999.90;;;;;;;2.58;100.00;163086.16;5009605;28;20351;-67
2022/01/15 08:57:08;;;;;;;1999.90;999.90;;;;;;;2.40;100.00;163038.22;5010479;28;20050;-67
2022/01/15 08:59:35;;;;;;;1999.90;999.90;;;;;;;2.63;100.00;163099.88;5009498;28;20077;-67
2022/01/15 09:02:01;;;;;;;1999.90;999.90;;;;;;;3.42;100.00;163309.47;5016148;28;20053;-68
2022/01/15 09:04:28;;;;;;;1999.90;999.90;;;;;;;3.26;100.00;163265.59;5008684;28;20050;-67
2022/01/15 09:06:55;;;;;;;1999.90;999.90;;;;;;;2.89;100.00;163166.94;5005918;28;20084;-67
2022/01/15 09:09:21;;;;;;;1999.90;999.90;;;;;;;2.57;100.00;163083.38;5007929;28;20054;-67
2022/01/15 09:11:48;;;;;;;1999.90;999.90;;;;;;;2.51;100.00;163065.59;5008831;28;20405;-67
2022/01/15 09:14:15;;;;;;;1999.90;999.90;;;;;;;2.49;100.00;163060.09;5010121;28;20112;-67
2022/01/15 09:16:41;;;;;;;1999.90;999.90;;;;;;;2.51;100.00;163065.59;5009131;28;20294;-68
2022/01/15 09:19:08;;;;;;;1999.90;999.90;;;;;;;2.79;100.00;163142.28;5010980;28;20077;-68
2022/01/15 09:21:35;;;;;;;1999.90;999.90;;;;;;;2.87;100.00;163161.47;5008097;28;20623;-65
2022/01/15 09:24:02;;;;;;;1999.90;999.90;;;;;;;3.21;100.00;163251.91;5009851;28;20049;-66
2022/01/15 09:26:47;;;;;;;1999.90;999.90;;;;;;;3.52;99.34;163336.88;5007216;28;20077;-66
2022/01/15 09:32:02;;;;;;;1999.90;999.90;;;;;;;2.29;100.00;163008.06;5007902;28;20054;-66
2022/01/15 09:34:28;;;;;;;1999.90;999.90;;;;;;;2.68;100.00;163112.19;5009019;28;20156;-67
2022/01/15 09:36:55;;;;;;;1999.90;999.90;;;;;;;2.88;100.00;163164.25;5009503;28;20081;-66
2022/01/15 09:39:23;;;;;;;1999.90;999.90;;;;;;;2.73;100.00;163125.88;5009046;28;20050;-67
2022/01/15 09:41:54;;;;;;;1999.90;999.90;;;;;;;2.24;100.00;162994.38;5009925;28;20763;-67
2022/01/15 09:44:22;;;;;;;1999.90;999.90;;;;;;;2.10;100.00;162958.78;5009522;28;20081;-66
2022/01/15 09:46:50;;;;;;;1999.90;999.90;;;;;;;2.48;100.00;163058.75;5009577;28;20684;-67
2022/01/15 09:49:23;;;;;;;1999.90;999.90;;;;;;;2.32;100.00;163016.28;5006294;28;20050;-66
2022/01/15 09:51:50;;;;;;;1999.90;999.90;;;;;;;2.52;100.00;163068.38;5006788;28;20065;-66
2022/01/15 09:54:18;;;;;;;1999.90;999.90;;;;;;;3.07;100.00;163214.94;5010280;28;20045;-66
2022/01/15 09:56:46;;;;;;;1999.90;999.90;;;;;;;3.11;100.00;163227.28;5009669;28;20142;-66
2022/01/15 09:59:13;;;;;;;1999.90;999.90;;;;;;;3.81;98.61;163413.66;5011467;28;20064;-66
2022/01/15 10:01:40;;;;;;;1999.90;999.90;;;;;;;3.68;97.73;163378.03;5011954;28;20177;-67
2022/01/15 10:04:06;;;;;;;1999.90;999.90;;;;;;;3.16;98.38;163240.94;5007947;28;20153;-67
2022/01/15 10:06:33;;;;;;;1999.90;999.90;;;;;;;3.08;99.98;163217.66;5008971;28;20046;-68
2022/01/15 10:09:08;;;;;;;1999.90;999.90;;;;;;;3.32;99.92;163282.03;5009954;28;20045;-67
2022/01/15 10:11:47;;;;;;;1999.90;999.90;;;;;;;3.46;97.93;163320.44;5006398;28;20054;-68
2022/01/15 10:14:43;;;;;;;1999.90;999.90;;;;;;;2.68;100.00;163110.78;5009318;28;20112;-67
2022/01/15 10:17:22;;;;;;;1999.90;999.90;;;;;;;3.53;100.00;163338.28;4997017;28;20049;-67
2022/01/15 10:19:50;;;;;;;1999.90;999.90;;;;;;;3.40;98.89;163302.66;5010671;28;20081;-68
2022/01/15 10:22:22;;;;;;;1999.90;999.90;;;;;;;3.50;99.41;163330.06;5015585;28;20053;-68
2022/01/15 10:24:53;;;;;;;1999.90;999.90;;;;;;;3.82;97.57;163415.03;5007939;28;20046;-67
2022/01/15 10:27:24;;;;;;;1999.90;999.90;;;;;;;3.06;98.71;163213.53;5007508;28;20418;-68
2022/01/15 10:30:09;;;;;;;1999.90;999.90;;;;;;;3.28;100.00;163271.13;5011258;28;20048;-67
2022/01/15 10:32:53;;;;;;;1999.90;999.90;;;;;;;2.88;100.00;163164.25;5002589;28;20497;-67
2022/01/15 10:35:20;;;;;;;1999.90;999.90;;;;;;;2.92;100.00;163176.56;5008455;28;20062;-67
2022/01/15 10:37:49;;;;;;;1999.90;999.90;;;;;;;3.11;100.00;163227.28;5009239;28;20049;-68
2022/01/15 10:40:16;;;;;;;1999.90;999.90;;;;;;;3.03;100.00;163205.31;5008636;28;20081;-68
2022/01/15 10:42:51;;;;;;;1999.90;999.90;;;;;;;3.56;99.93;163346.50;5007058;28;20073;-68
2022/01/15 10:45:17;;;;;;;1999.90;999.90;;;;;;;3.46;99.54;163319.09;5006385;28;20089;-68
2022/01/15 10:47:49;;;;;;;1999.90;999.90;;;;;;;3.96;98.36;163452.03;5006572;28;20058;-67
2022/01/15 10:50:23;;;;;;;1999.90;999.90;;;;;;;3.90;98.48;163436.97;5013233;28;20092;-67
2022/01/15 10:52:50;;;;;;;1999.90;999.90;;;;;;;3.59;99.01;163353.31;5007451;28;20100;-68
2022/01/15 10:55:18;;;;;;;1999.90;999.90;;;;;;;2.84;100.00;163153.28;5017155;28;20637;-67
2022/01/15 10:57:57;;;;;;;1999.90;999.90;;;;;;;2.99;100.00;163194.34;5008056;28;20335;-67
2022/01/15 11:00:38;;;;;;;1999.90;999.90;;;;;;;3.48;100.00;163324.53;5008317;28;20077;-67
2022/01/15 11:03:11;;;;;;;1999.90;999.90;;;;;;;2.88;100.00;163164.25;5004649;28;20550;-68
2022/01/15 11:05:44;;;;;;;1999.90;999.90;;;;;;;2.96;100.00;163186.13;5006134;28;20101;-67
2022/01/15 11:08:17;;;;;;;1999.90;999.90;;;;;;;3.79;100.00;163406.81;5007259;28;20065;-68
2022/01/15 11:10:44;;;;;;;1999.90;999.90;;;;;;;3.94;99.26;163447.91;5016912;28;20541;-67
2022/01/15 11:13:12;;;;;;;1999.90;999.90;;;;;;;3.88;98.95;163432.88;5011713;28;20081;-67
2022/01/15 11:15:42;;;;;;;1999.90;999.90;;;;;;;3.34;100.00;163288.91;5005896;28;20129;-67
2022/01/15 11:18:13;;;;;;;1999.90;999.90;;;;;;;3.84;99.89;163421.88;5004169;28;20116;-67